METAR Data
IDs: Format: Raw Decoded Include TAF

Data at: 0901 UTC 18 Nov 2018

PAVD 180856Z AUTO 00000KT 7SM UP BKN019 BKN024 OVC035 02/01 A2979 RMK AO2 RAE41UPB41 SLP112 P0001 60009 T00170006 50000 FZRANO
PAVD 180852Z AUTO 00000KT 7SM UP BKN022 OVC035 01/01 A2979 RMK AO2 RAE41UPB41 P0001 FZRANO
PAVD 180817Z AUTO 00000KT 3SM -RA BR FEW018 BKN038 OVC046 01/01 A2980 RMK AO2 P0001 FZRANO
PAVD 180806Z AUTO 00000KT 1 3/4SM -RA BR FEW018 SCT031 OVC039 01/01 A2979 RMK AO2 VIS 1V4 P0000 FZRANO
PAVD 180756Z AUTO 00000KT 4SM -RA BR FEW018 BKN035 OVC042 01/01 A2980 RMK AO2 SLP115 P0003 T00110006 400220000 FZRANO
PAVD 180656Z 00000KT 10SM -RA FEW001 SCT030 OVC050 01/01 A2979 RMK AO2 SLP112 P0005 T00110006
PAVD 180556Z 00000KT 10SM -RA FEW002 FEW035 OVC050 01/01 A2977 RMK AO2 SLP106 P0001 60009 T00110006 10017 20011 53005
PAVD 180456Z 20003KT 10SM -RA FEW030 OVC050 01/01 A2976 RMK AO2 SLP102 P0002 T00110006
PAVD 180356Z 00000KT 10SM -RA FEW001 FEW025 OVC055 01/01 A2976 RMK AO2 SLP103 P0002 T00110006
PAVD 180256Z 00000KT 10SM -RA FEW001 FEW025 OVC055 01/01 A2975 RMK AO2 SLP101 P0002 60004 T00110006 53010
PAVD 180156Z 00000KT 8SM -RA FEW003 FEW018 OVC060 01/01 A2974 RMK AO2 SLP096 P0001 T00110006
PAVD 180056Z 00000KT 9SM -RA FEW003 FEW030 OVC060 01/01 A2973 RMK AO2 SLP092 P0001 T00110006
PAVD 172356Z 00000KT 9SM -RA FEW020 FEW035 OVC055 02/01 A2972 RMK AO2 RAB06UPB18E19 SLP090 P0001 60014 T00170006 10022 20006 51010
PAVD 172256Z 00000KT 9SM FEW025 SCT048 OVC060 02/01 A2972 RMK AO2 SLP089 T00170006
PAVD 172156Z 00000KT 10SM FEW007 FEW027 BKN050 02/01 A2970 RMK AO2 SLP083 T00220006
PAVD 172056Z 00000KT 10SM FEW025 SCT050 BKN060 02/01 A2969 RMK AO2 RAE52 SLP080 RAE51 P0005 60013 T00170006 53007
PAVD 171956Z 00000KT 10SM -RA SCT027 BKN050 OVC060 01/01 A2968 RMK AO2 RAB10UPB44E46 SLP077 RAB45 P0005 T00110006
PAVD 171856Z 29004KT 10SM SCT025 BKN045 BKN060 01/00 A2967 RMK AO2 RAE18 SLP073 P0003 T00060000
PAVD 171756Z COR 00000KT 8SM -RA FEW007 SCT043 OVC050 01/00 A2967 RMK AO2 SLP073 SNE41 P0002 60018 T00060000 10006 20000 53001
PAVD 171656Z 00000KT 10SM -RA FEW027 BKN044 OVC055 01/00 A2966 RMK AO2 SNE54 SLP070 SNE41 P0002 T00060000
PAVD 171556Z 00000KT 10SM -SNRA FEW015 OVC055 01/00 A2966 RMK AO2 UPE11RAB11SNB11 SLP070 P0004 T00060000
PAVD 171512Z COR 00000KT 10SM -SNRA FEW015 FEW045 OVC065 01/00 A2967 RMK AO2 UPE11RAB11SNB11 P0001
PAVD 171511Z 00000KT 10SM SNRA FEW015 FEW045 OVC065 01/00 A2967 RMK AO2 UPE11RAB11SNB11 P0001
PAVD 171456Z AUTO 00000KT 10SM UP FEW022 OVC065 01/00 A2967 RMK AO2 SLP072 P0000 60010 T00060000 58025 FZRANO
PAVD 171431Z AUTO 00000KT 8SM UP SCT025 SCT049 OVC065 00/00 A2968 RMK AO2 P0000 FZRANO
PAVD 171356Z AUTO 00000KT 10SM UP SCT020 BKN027 OVC055 00/M01 A2970 RMK AO2 UPE19B44SNB19E44 SLP080 P0006 T00001006 FZRANO
PAVD 171344Z AUTO 07003KT 3SM UP BR SCT020 BKN027 OVC038 00/M01 A2970 RMK AO2 UPE19B44SNB19E44 P0006 FZRANO
PAVD 171341Z AUTO 06004KT 2 1/2SM -SN BR SCT020 SCT027 OVC038 00/M01 A2970 RMK AO2 VIS 1/2V5 UPE19SNB19 P0005 FZRANO
PAVD 171314Z AUTO 00000KT 6SM UP BR SCT020 OVC038 00/M01 A2971 RMK AO2 P0002 FZRANO
PAVD 171256Z AUTO 00000KT 5SM UP BR FEW001 BKN020 OVC036 00/M01 A2972 RMK AO2 SLP089 P0004 T00001006 FZRANO
PAVD 171156Z AUTO 00000KT 5SM UP BR OVC020 00/M01 A2975 RMK AO2 SNB04E13 SLP097 P0005 60005 70005 T00001006 10006 21006 FZRANO
PAVD 171132Z AUTO 00000KT 3SM UP BR BKN020 OVC035 00/M01 A2976 RMK AO2 SNB04E13 P0003 FZRANO
PAVD 171104Z AUTO 00000KT 5SM -SN BR FEW022 OVC035 00/M01 A2977 RMK AO2 UPE04SNB04 P0001 FZRANO
PAVD 171056Z AUTO 00000KT 4SM UP BR SCT022 BKN028 OVC034 00/M01 A2978 RMK AO2 RAB44E48 SLP109 P0000 T00001006 FZRANO
PAVD 171010Z AUTO 01004KT 5SM UP BR FEW012 BKN023 OVC029 00/M01 A2981 RMK AO2 P0000 FZRANO
PAVD 170956Z AUTO 00000KT 2 1/2SM UP BR FEW002 BKN025 OVC030 00/M01 RMK AO2 VIS 1 1/2V4 UPB28E34B51SNE28B34E51 SLPNO P0000 T00001006 FZRANO $
PAVD 170856Z AUTO 00000KT 5SM -SN BR FEW012 OVC020 00/M01 A2985 RMK AO2 UPB21E46SNE21B25E37B46 SLP134 P0000 60000 T00001006 56039 FZRANO
PAVD 170756Z AUTO 00000KT 8SM -SN SCT019 OVC026 00/M01 A2989 RMK AO2 RAE0659UPB07E47SNE07B47 SLP146 P0000 T00001006 400061050 FZRANO
PAVD 170656Z 00000KT 6SM -SNRA BR FEW001 BKN015 OVC060 M01/M01 A2992 RMK AO2 RAB52 SLP159 P0000 T10061011
PAVD 170556Z 00000KT 5SM -SN BR FEW001 BKN035 OVC060 M01/M01 A2997 RMK AO2 SLP173 P0000 60000 T10061011 10006 21011 56041
PAVD 170456Z 00000KT 5SM -SN BR FEW001 BKN020 OVC035 M01/M02 A3000 RMK AO2 SLP185 P0000 T10061017
PAVD 170356Z 08003KT 2SM -SN BR SCT001 BKN010 OVC030 M01/M02 A3004 RMK AO2 SLP199 P0000 T10061022
PAVD 170256Z 34003KT 2SM -SN BR SCT001 BKN018 OVC040 M01/M02 A3009 RMK AO2 SLP215 P0000 60000 T10111022 58020
PAVD 170156Z 04003KT 2SM -SN BR SCT001 BKN020 OVC042 M01/M02 A3013 RMK AO2 UPE0058SNB0058 SLP227 P0000 T10111022
PAVD 170124Z 00000KT 2SM -SN BR SCT001 BKN020 OVC042 M01/M03 A3014 RMK AO2 UPE0058SNB0058 P0000
PAVD 170116Z 12003KT 2 1/2SM -SN BKN055 OVC090 00/M03 A3014 RMK AO2 VIS 1 3/4V4 UPE0058SNB0058 P0000
PAVD 170108Z 13004KT 3SM -SN BKN055 OVC090 01/M04 A3015 RMK AO2 UPE0058SNB0058 P0000
PAVD 170056Z 10005KT 10SM UP BKN055 OVC090 00/M04 A3015 RMK AO2 UPB55 SLP235 VCSH ALQDS P0000 T00001044
PAVD 162356Z 00000KT 10SM BKN055 OVC090 M01/M04 A3015 RMK AO2 SLP235 VCSH ALQDS T10061039 11006 21033 56026
PAVD 162256Z 00000KT 10SM OVC090 M01/M04 A3015 RMK AO2 SLP236 T10061044
PAVD 162156Z 00000KT 10SM BKN120 M01/M04 A3020 RMK AO2 SLP250 T10061044